• Join FlightAware (Why Join?)
  • Login
  • US Flag 
11:18AM EDT


 

Airport Tracker/Info


-or-


 

Live Flight TrackerFlight Track Log ✈ N510SR ✈ 30-Sep-2013 ✈ KTEB - KBOS

Flight Track Log - Related Links

Times and Time Zones

All times are in EDT time to prevent confusion due to time zone crossing. See the N510SR flight status page for this flight to view local times or setup timezone preferences in your user account.

Time Position Orientation Groundspeed Altitude Reporting Facility
EDT Latitude Longitude Course Direction KTS MPH feet Rate Location/Type
09:18AM 40.9167 -74.0333 55° Northeast 218 251 2,100  Level New York TRACON
09:20AM 40.9833 -74.1667 304° West 273 314 6,100 1,320 Climbing New York TRACON
09:21AM 41.0500 -74.1500 11° North 276 318 6,100 1,020 Level New York TRACON
09:22AM 41.1658 -74.0803 24° Northeast 289 333 8,900 1,800 Climbing Boston Center
09:23AM 41.0476 -73.6791 55° Northeast  Level Estimated
09:23AM 41.1956 -73.9672 71° East 309 356 11,100  Level Boston Center
09:24AM 41.2228 -73.8414 74° East 353 406 11,100 60 Level Boston Center
09:26AM 41.2572 -73.6886 73° East 352 405 11,300 1,080 Climbing Boston Center
09:27AM 41.2861 -73.5603 73° East 363 418 13,600 1,800 Climbing Boston Center
09:28AM 41.3114 -73.4478 73° East 375 432 15,100 720 Climbing Boston Center
09:29AM 41.3489 -73.2750 74° East 404 465 15,100  Level Boston Center
09:30AM 41.3789 -73.1369 74° East 389 448 15,100  Level Boston Center
09:31AM 41.4092 -72.9892 75° East 387 445 15,100  Level Boston Center
09:32AM 41.4389 -72.8500 74° East 391 450 15,100  Level Boston Center
09:33AM 41.4672 -72.7125 75° East 388 447 15,100  Level Boston Center
09:34AM 41.5031 -72.5414 74° East 390 449 15,100  Level Boston Center
09:35AM 41.5308 -72.4033 75° East 389 448 15,100 -540 Level Boston Center
09:36AM 41.5606 -72.2544 75° East 386 444 14,100 -960 Descending Boston Center
09:37AM 41.5892 -72.1189 74° East 380 437 13,100 -1,020 Descending Boston Center
09:38AM 41.6147 -71.9861 76° East 373 429 12,100 -1,020 Descending Boston Center
09:39AM 41.6428 -71.8447 75° East 369 425 11,100 -540 Descending Boston Center
09:40AM 41.6694 -71.7103 75° East 375 432 11,100  Level Boston Center
09:41AM 41.6956 -71.5814 75° East 367 422 11,100  Level Boston Center
09:42AM 41.7200 -71.4681 74° East 297 342 11,100  Level Boston Center
09:43AM 41.7658 -71.3767 56° Northeast 297 342 11,100  Level Boston Center
09:44AM 41.8200 -71.2842 52° Northeast 297 342 11,100 -180 Level Boston Center
09:45AM 41.8894 -71.2258 32° Northeast 296 341 10,800 -1,200 Descending Boston Center
09:46AM 41.9617 -71.1928 19° North 276 318 8,700 -2,400 Descending Boston Center
09:47AM 42.0389 -71.1658 15° North 267 307 6,000 -2,340 Descending Boston Center
09:48AM 42.1044 -71.1336 20° North 254 292 4,000 -1,080 Descending Boston Center
09:49AM 42.1667 -71.1014 21° North 242 278 3,800 -600 Descending Boston Center
09:50AM 42.2206 -71.0767 19° North 189 217 2,800 -840 Descending Boston Center
09:52AM 42.2656 -71.0544 20° North 173 199 1,900 -840 Descending Boston Center
09:53AM 42.3131 -71.0306 20° North 169 194 900 -780 Descending Boston Center
09:54AM 42.3631 -71.0086 18° North 169 194 400 -540 Descending Boston Center
09:56AM 42.3630 -71.0064 North  Level Estimated